sensor_id;sensor_type;location;lat;lon;timestamp;P1;durP1;ratioP1;P2;durP2;ratioP2
16484;SDS011;8353;47.856;12.344;2023-02-26T00:01:38;1.60;;;0.73;;
16484;SDS011;8353;47.856;12.344;2023-02-26T00:04:09;0.60;;;0.60;;
16484;SDS011;8353;47.856;12.344;2023-02-26T00:06:40;0.63;;;0.63;;
16484;SDS011;8353;47.856;12.344;2023-02-26T00:09:22;0.97;;;0.40;;
16484;SDS011;8353;47.856;12.344;2023-02-26T00:11:52;0.30;;;0.30;;
16484;SDS011;8353;47.856;12.344;2023-02-26T00:14:23;0.40;;;0.40;;
16484;SDS011;8353;47.856;12.344;2023-02-26T00:16:57;0.60;;;0.40;;
16484;SDS011;8353;47.856;12.344;2023-02-26T00:19:52;0.60;;;0.50;;
16484;SDS011;8353;47.856;12.344;2023-02-26T00:22:23;0.50;;;0.40;;
16484;SDS011;8353;47.856;12.344;2023-02-26T00:24:55;0.60;;;0.60;;
16484;SDS011;8353;47.856;12.344;2023-02-26T00:27:25;0.60;;;0.60;;
16484;SDS011;8353;47.856;12.344;2023-02-26T00:29:56;0.40;;;0.40;;
16484;SDS011;8353;47.856;12.344;2023-02-26T00:32:27;0.57;;;0.57;;
16484;SDS011;8353;47.856;12.344;2023-02-26T00:34:58;0.80;;;0.80;;
16484;SDS011;8353;47.856;12.344;2023-02-26T00:37:33;0.43;;;0.43;;
16484;SDS011;8353;47.856;12.344;2023-02-26T00:40:27;0.80;;;0.80;;
16484;SDS011;8353;47.856;12.344;2023-02-26T00:43:04;0.77;;;0.70;;
16484;SDS011;8353;47.856;12.344;2023-02-26T00:45:37;0.77;;;0.50;;
16484;SDS011;8353;47.856;12.344;2023-02-26T00:48:15;0.83;;;0.83;;
16484;SDS011;8353;47.856;12.344;2023-02-26T00:50:53;0.60;;;0.50;;
16484;SDS011;8353;47.856;12.344;2023-02-26T00:53:46;1.33;;;0.80;;
16484;SDS011;8353;47.856;12.344;2023-02-26T00:56:22;0.40;;;0.40;;
16484;SDS011;8353;47.856;12.344;2023-02-26T00:58:52;0.40;;;0.40;;
16484;SDS011;8353;47.856;12.344;2023-02-26T01:01:23;0.53;;;0.53;;
16484;SDS011;8353;47.856;12.344;2023-02-26T01:03:54;0.90;;;0.80;;
16484;SDS011;8353;47.856;12.344;2023-02-26T01:06:24;0.57;;;0.57;;
16484;SDS011;8353;47.856;12.344;2023-02-26T01:08:58;0.67;;;0.60;;
16484;SDS011;8353;47.856;12.344;2023-02-26T01:11:36;1.60;;;0.70;;
16484;SDS011;8353;47.856;12.344;2023-02-26T01:14:07;0.50;;;0.50;;
16484;SDS011;8353;47.856;12.344;2023-02-26T01:16:41;0.77;;;0.77;;
16484;SDS011;8353;47.856;12.344;2023-02-26T01:19:19;0.97;;;0.60;;
16484;SDS011;8353;47.856;12.344;2023-02-26T01:21:59;1.97;;;1.20;;
16484;SDS011;8353;47.856;12.344;2023-02-26T01:24:33;0.97;;;0.80;;
16484;SDS011;8353;47.856;12.344;2023-02-26T01:27:07;0.40;;;0.40;;
16484;SDS011;8353;47.856;12.344;2023-02-26T01:29:38;1.63;;;1.53;;
16484;SDS011;8353;47.856;12.344;2023-02-26T01:32:10;1.17;;;0.90;;
16484;SDS011;8353;47.856;12.344;2023-02-26T01:34:47;1.30;;;1.20;;
16484;SDS011;8353;47.856;12.344;2023-02-26T01:37:25;1.40;;;1.30;;
16484;SDS011;8353;47.856;12.344;2023-02-26T01:40:12;1.40;;;1.27;;
16484;SDS011;8353;47.856;12.344;2023-02-26T01:43:19;1.37;;;1.20;;
16484;SDS011;8353;47.856;12.344;2023-02-26T01:45:58;1.70;;;1.60;;
16484;SDS011;8353;47.856;12.344;2023-02-26T01:48:36;1.70;;;1.50;;
16484;SDS011;8353;47.856;12.344;2023-02-26T01:51:17;1.30;;;1.20;;
16484;SDS011;8353;47.856;12.344;2023-02-26T01:53:48;1.30;;;1.00;;
16484;SDS011;8353;47.856;12.344;2023-02-26T01:56:18;1.20;;;1.00;;
16484;SDS011;8353;47.856;12.344;2023-02-26T01:58:51;1.30;;;1.20;;
16484;SDS011;8353;47.856;12.344;2023-02-26T02:01:21;1.60;;;1.50;;
16484;SDS011;8353;47.856;12.344;2023-02-26T02:03:52;2.27;;;2.00;;
16484;SDS011;8353;47.856;12.344;2023-02-26T02:06:23;1.10;;;0.90;;
16484;SDS011;8353;47.856;12.344;2023-02-26T02:08:54;0.90;;;0.90;;
16484;SDS011;8353;47.856;12.344;2023-02-26T02:11:25;1.13;;;1.03;;
16484;SDS011;8353;47.856;12.344;2023-02-26T02:14:00;0.93;;;0.93;;
16484;SDS011;8353;47.856;12.344;2023-02-26T02:16:42;0.83;;;0.60;;
16484;SDS011;8353;47.856;12.344;2023-02-26T02:19:29;1.73;;;0.80;;
16484;SDS011;8353;47.856;12.344;2023-02-26T02:22:19;0.97;;;0.80;;
16484;SDS011;8353;47.856;12.344;2023-02-26T02:25:09;0.67;;;0.67;;
16484;SDS011;8353;47.856;12.344;2023-02-26T02:27:49;1.53;;;1.43;;
16484;SDS011;8353;47.856;12.344;2023-02-26T02:30:32;1.00;;;0.90;;
16484;SDS011;8353;47.856;12.344;2023-02-26T02:33:12;0.90;;;0.90;;
16484;SDS011;8353;47.856;12.344;2023-02-26T02:35:49;0.80;;;0.80;;
16484;SDS011;8353;47.856;12.344;2023-02-26T02:38:26;1.47;;;1.37;;
16484;SDS011;8353;47.856;12.344;2023-02-26T02:41:04;1.20;;;1.10;;
16484;SDS011;8353;47.856;12.344;2023-02-26T02:43:36;2.00;;;1.53;;
16484;SDS011;8353;47.856;12.344;2023-02-26T02:46:11;1.40;;;1.30;;
16484;SDS011;8353;47.856;12.344;2023-02-26T02:48:47;0.87;;;0.87;;
16484;SDS011;8353;47.856;12.344;2023-02-26T02:51:22;1.60;;;1.47;;
16484;SDS011;8353;47.856;12.344;2023-02-26T02:53:56;1.87;;;1.77;;
16484;SDS011;8353;47.856;12.344;2023-02-26T02:56:33;1.90;;;1.73;;
16484;SDS011;8353;47.856;12.344;2023-02-26T02:59:10;1.27;;;1.17;;
16484;SDS011;8353;47.856;12.344;2023-02-26T03:01:47;1.23;;;1.00;;
16484;SDS011;8353;47.856;12.344;2023-02-26T03:04:21;1.60;;;1.50;;
16484;SDS011;8353;47.856;12.344;2023-02-26T03:06:52;0.83;;;0.83;;
16484;SDS011;8353;47.856;12.344;2023-02-26T03:09:23;1.50;;;1.40;;
16484;SDS011;8353;47.856;12.344;2023-02-26T03:11:53;1.40;;;1.30;;
16484;SDS011;8353;47.856;12.344;2023-02-26T03:14:24;1.60;;;1.13;;
16484;SDS011;8353;47.856;12.344;2023-02-26T03:17:00;1.40;;;1.20;;
16484;SDS011;8353;47.856;12.344;2023-02-26T03:19:43;0.87;;;0.87;;
16484;SDS011;8353;47.856;12.344;2023-02-26T03:22:31;1.70;;;1.60;;
16484;SDS011;8353;47.856;12.344;2023-02-26T03:25:08;1.10;;;1.00;;
16484;SDS011;8353;47.856;12.344;2023-02-26T03:27:46;1.20;;;1.10;;
16484;SDS011;8353;47.856;12.344;2023-02-26T03:30:24;1.57;;;1.47;;
16484;SDS011;8353;47.856;12.344;2023-02-26T03:33:02;1.40;;;1.30;;
16484;SDS011;8353;47.856;12.344;2023-02-26T03:35:46;1.60;;;1.50;;
16484;SDS011;8353;47.856;12.344;2023-02-26T03:38:22;1.10;;;1.00;;
16484;SDS011;8353;47.856;12.344;2023-02-26T03:40:58;1.20;;;1.10;;
16484;SDS011;8353;47.856;12.344;2023-02-26T03:43:34;3.07;;;1.60;;
16484;SDS011;8353;47.856;12.344;2023-02-26T03:46:09;2.17;;;1.70;;
16484;SDS011;8353;47.856;12.344;2023-02-26T03:48:43;1.47;;;1.00;;
16484;SDS011;8353;47.856;12.344;2023-02-26T03:51:17;1.07;;;0.90;;
16484;SDS011;8353;47.856;12.344;2023-02-26T03:53:51;1.00;;;0.90;;
16484;SDS011;8353;47.856;12.344;2023-02-26T03:56:29;1.00;;;0.70;;
16484;SDS011;8353;47.856;12.344;2023-02-26T03:59:05;1.10;;;1.00;;
16484;SDS011;8353;47.856;12.344;2023-02-26T04:01:38;1.27;;;1.17;;
16484;SDS011;8353;47.856;12.344;2023-02-26T04:04:14;1.20;;;1.10;;
16484;SDS011;8353;47.856;12.344;2023-02-26T04:06:51;1.67;;;1.13;;
16484;SDS011;8353;47.856;12.344;2023-02-26T04:09:22;2.03;;;0.87;;
16484;SDS011;8353;47.856;12.344;2023-02-26T04:11:53;0.80;;;0.70;;
16484;SDS011;8353;47.856;12.344;2023-02-26T04:14:26;0.80;;;0.80;;
16484;SDS011;8353;47.856;12.344;2023-02-26T04:16:56;0.83;;;0.80;;
16484;SDS011;8353;47.856;12.344;2023-02-26T04:19:27;1.33;;;1.23;;
16484;SDS011;8353;47.856;12.344;2023-02-26T04:21:59;0.80;;;0.80;;
16484;SDS011;8353;47.856;12.344;2023-02-26T04:24:29;0.80;;;0.80;;
16484;SDS011;8353;47.856;12.344;2023-02-26T04:26:59;0.80;;;0.80;;
16484;SDS011;8353;47.856;12.344;2023-02-26T04:29:30;0.70;;;0.70;;
16484;SDS011;8353;47.856;12.344;2023-02-26T04:32:03;1.07;;;0.90;;
16484;SDS011;8353;47.856;12.344;2023-02-26T04:34:33;0.50;;;0.50;;
16484;SDS011;8353;47.856;12.344;2023-02-26T04:37:05;1.47;;;1.03;;
16484;SDS011;8353;47.856;12.344;2023-02-26T04:39:36;1.30;;;1.10;;
16484;SDS011;8353;47.856;12.344;2023-02-26T04:42:06;2.43;;;1.73;;
16484;SDS011;8353;47.856;12.344;2023-02-26T04:44:37;0.70;;;0.70;;
16484;SDS011;8353;47.856;12.344;2023-02-26T04:47:08;0.80;;;0.80;;
16484;SDS011;8353;47.856;12.344;2023-02-26T04:49:39;0.93;;;0.93;;
16484;SDS011;8353;47.856;12.344;2023-02-26T04:52:13;0.60;;;0.60;;
16484;SDS011;8353;47.856;12.344;2023-02-26T04:54:43;1.20;;;1.10;;
16484;SDS011;8353;47.856;12.344;2023-02-26T04:57:14;0.60;;;0.60;;
16484;SDS011;8353;47.856;12.344;2023-02-26T04:59:44;1.53;;;0.70;;
16484;SDS011;8353;47.856;12.344;2023-02-26T05:02:15;0.93;;;0.80;;
16484;SDS011;8353;47.856;12.344;2023-02-26T05:04:45;1.23;;;1.00;;
16484;SDS011;8353;47.856;12.344;2023-02-26T05:07:17;1.90;;;1.80;;
16484;SDS011;8353;47.856;12.344;2023-02-26T05:09:47;0.97;;;0.90;;
16484;SDS011;8353;47.856;12.344;2023-02-26T05:12:18;0.93;;;0.80;;
16484;SDS011;8353;47.856;12.344;2023-02-26T05:14:48;1.53;;;0.80;;
16484;SDS011;8353;47.856;12.344;2023-02-26T05:17:19;0.87;;;0.87;;
16484;SDS011;8353;47.856;12.344;2023-02-26T05:19:50;1.00;;;0.90;;
16484;SDS011;8353;47.856;12.344;2023-02-26T05:22:22;2.67;;;1.90;;
16484;SDS011;8353;47.856;12.344;2023-02-26T05:24:52;2.50;;;1.40;;
16484;SDS011;8353;47.856;12.344;2023-02-26T05:27:22;1.40;;;1.30;;
16484;SDS011;8353;47.856;12.344;2023-02-26T05:29:53;3.33;;;2.67;;
16484;SDS011;8353;47.856;12.344;2023-02-26T05:32:23;1.47;;;1.37;;
16484;SDS011;8353;47.856;12.344;2023-02-26T05:34:54;1.73;;;1.47;;
16484;SDS011;8353;47.856;12.344;2023-02-26T05:37:26;1.33;;;1.23;;
16484;SDS011;8353;47.856;12.344;2023-02-26T05:39:56;1.23;;;1.07;;
16484;SDS011;8353;47.856;12.344;2023-02-26T05:42:27;1.20;;;0.93;;
16484;SDS011;8353;47.856;12.344;2023-02-26T05:44:58;2.50;;;1.80;;
16484;SDS011;8353;47.856;12.344;2023-02-26T05:47:28;2.47;;;2.10;;
16484;SDS011;8353;47.856;12.344;2023-02-26T05:49:59;2.23;;;2.03;;
16484;SDS011;8353;47.856;12.344;2023-02-26T05:52:32;2.37;;;1.53;;
16484;SDS011;8353;47.856;12.344;2023-02-26T05:55:03;1.10;;;0.97;;
16484;SDS011;8353;47.856;12.344;2023-02-26T05:57:34;1.17;;;1.00;;
16484;SDS011;8353;47.856;12.344;2023-02-26T06:00:06;1.40;;;1.30;;
16484;SDS011;8353;47.856;12.344;2023-02-26T06:02:38;1.27;;;1.17;;
16484;SDS011;8353;47.856;12.344;2023-02-26T06:05:08;0.90;;;0.90;;
16484;SDS011;8353;47.856;12.344;2023-02-26T06:07:41;1.47;;;1.10;;
16484;SDS011;8353;47.856;12.344;2023-02-26T06:10:11;2.90;;;1.53;;
16484;SDS011;8353;47.856;12.344;2023-02-26T06:12:42;1.47;;;1.37;;
16484;SDS011;8353;47.856;12.344;2023-02-26T06:15:12;1.20;;;1.00;;
16484;SDS011;8353;47.856;12.344;2023-02-26T06:17:42;1.60;;;1.20;;
16484;SDS011;8353;47.856;12.344;2023-02-26T06:20:14;1.17;;;1.07;;
16484;SDS011;8353;47.856;12.344;2023-02-26T06:22:45;1.57;;;1.47;;
16484;SDS011;8353;47.856;12.344;2023-02-26T06:25:16;2.63;;;1.70;;
16484;SDS011;8353;47.856;12.344;2023-02-26T06:27:47;2.50;;;1.87;;
16484;SDS011;8353;47.856;12.344;2023-02-26T06:30:18;1.03;;;0.87;;
16484;SDS011;8353;47.856;12.344;2023-02-26T06:32:51;2.10;;;1.00;;
16484;SDS011;8353;47.856;12.344;2023-02-26T06:35:22;1.27;;;1.10;;
16484;SDS011;8353;47.856;12.344;2023-02-26T06:37:53;2.43;;;1.57;;
16484;SDS011;8353;47.856;12.344;2023-02-26T06:40:24;1.83;;;1.10;;
16484;SDS011;8353;47.856;12.344;2023-02-26T06:42:56;1.53;;;1.03;;
16484;SDS011;8353;47.856;12.344;2023-02-26T06:45:26;1.47;;;1.00;;
16484;SDS011;8353;47.856;12.344;2023-02-26T06:47:57;1.43;;;1.33;;
16484;SDS011;8353;47.856;12.344;2023-02-26T06:50:27;1.53;;;1.27;;
16484;SDS011;8353;47.856;12.344;2023-02-26T06:53:00;1.87;;;1.60;;
16484;SDS011;8353;47.856;12.344;2023-02-26T06:55:33;1.77;;;1.37;;
16484;SDS011;8353;47.856;12.344;2023-02-26T06:58:04;1.10;;;1.00;;
16484;SDS011;8353;47.856;12.344;2023-02-26T07:00:34;3.47;;;2.37;;
16484;SDS011;8353;47.856;12.344;2023-02-26T07:03:07;1.30;;;1.20;;
16484;SDS011;8353;47.856;12.344;2023-02-26T07:05:40;1.13;;;1.03;;
16484;SDS011;8353;47.856;12.344;2023-02-26T07:08:12;1.47;;;1.10;;
16484;SDS011;8353;47.856;12.344;2023-02-26T07:10:43;2.53;;;1.30;;
16484;SDS011;8353;47.856;12.344;2023-02-26T07:13:17;1.77;;;1.10;;
16484;SDS011;8353;47.856;12.344;2023-02-26T07:15:48;0.80;;;0.80;;
16484;SDS011;8353;47.856;12.344;2023-02-26T07:18:18;1.73;;;1.23;;
16484;SDS011;8353;47.856;12.344;2023-02-26T07:20:49;1.27;;;0.80;;
16484;SDS011;8353;47.856;12.344;2023-02-26T07:23:21;1.30;;;1.10;;
16484;SDS011;8353;47.856;12.344;2023-02-26T07:25:51;2.57;;;1.30;;
16484;SDS011;8353;47.856;12.344;2023-02-26T07:28:22;1.53;;;1.30;;
16484;SDS011;8353;47.856;12.344;2023-02-26T07:30:53;1.10;;;1.00;;
16484;SDS011;8353;47.856;12.344;2023-02-26T07:33:24;1.93;;;1.73;;
16484;SDS011;8353;47.856;12.344;2023-02-26T07:35:56;1.73;;;1.10;;
16484;SDS011;8353;47.856;12.344;2023-02-26T07:38:28;2.00;;;1.63;;
16484;SDS011;8353;47.856;12.344;2023-02-26T07:40:59;1.33;;;1.00;;
16484;SDS011;8353;47.856;12.344;2023-02-26T07:43:29;1.50;;;1.03;;
16484;SDS011;8353;47.856;12.344;2023-02-26T07:46:00;1.90;;;1.40;;
16484;SDS011;8353;47.856;12.344;2023-02-26T07:48:33;1.50;;;1.30;;
16484;SDS011;8353;47.856;12.344;2023-02-26T07:51:04;1.03;;;0.90;;
16484;SDS011;8353;47.856;12.344;2023-02-26T07:53:37;2.57;;;1.67;;
16484;SDS011;8353;47.856;12.344;2023-02-26T07:56:08;1.37;;;1.27;;
16484;SDS011;8353;47.856;12.344;2023-02-26T07:58:38;2.20;;;1.40;;
16484;SDS011;8353;47.856;12.344;2023-02-26T08:01:09;2.20;;;2.00;;
16484;SDS011;8353;47.856;12.344;2023-02-26T08:03:39;2.17;;;1.70;;
16484;SDS011;8353;47.856;12.344;2023-02-26T08:06:10;3.70;;;2.07;;
16484;SDS011;8353;47.856;12.344;2023-02-26T08:08:41;3.00;;;2.07;;
16484;SDS011;8353;47.856;12.344;2023-02-26T08:11:12;1.80;;;1.70;;
16484;SDS011;8353;47.856;12.344;2023-02-26T08:13:42;1.90;;;1.50;;
16484;SDS011;8353;47.856;12.344;2023-02-26T08:16:13;1.30;;;1.10;;
16484;SDS011;8353;47.856;12.344;2023-02-26T08:18:43;1.63;;;1.43;;
16484;SDS011;8353;47.856;12.344;2023-02-26T08:21:14;4.97;;;2.87;;
16484;SDS011;8353;47.856;12.344;2023-02-26T08:23:47;3.13;;;1.80;;
16484;SDS011;8353;47.856;12.344;2023-02-26T08:26:17;1.90;;;1.47;;
16484;SDS011;8353;47.856;12.344;2023-02-26T08:28:48;1.50;;;1.33;;
16484;SDS011;8353;47.856;12.344;2023-02-26T08:31:18;1.30;;;1.20;;
16484;SDS011;8353;47.856;12.344;2023-02-26T08:33:49;1.20;;;1.10;;
16484;SDS011;8353;47.856;12.344;2023-02-26T08:36:19;1.50;;;1.10;;
16484;SDS011;8353;47.856;12.344;2023-02-26T08:38:52;3.30;;;2.50;;
16484;SDS011;8353;47.856;12.344;2023-02-26T08:41:22;1.53;;;1.40;;
16484;SDS011;8353;47.856;12.344;2023-02-26T08:43:54;2.10;;;1.80;;
16484;SDS011;8353;47.856;12.344;2023-02-26T08:46:25;1.30;;;1.10;;
16484;SDS011;8353;47.856;12.344;2023-02-26T08:48:56;1.97;;;1.40;;
16484;SDS011;8353;47.856;12.344;2023-02-26T08:51:27;2.60;;;1.77;;
16484;SDS011;8353;47.856;12.344;2023-02-26T08:53:59;3.27;;;2.77;;
16484;SDS011;8353;47.856;12.344;2023-02-26T08:56:30;4.37;;;3.47;;
16484;SDS011;8353;47.856;12.344;2023-02-26T08:59:01;5.00;;;2.40;;
16484;SDS011;8353;47.856;12.344;2023-02-26T09:01:32;1.70;;;1.40;;
16484;SDS011;8353;47.856;12.344;2023-02-26T09:04:02;2.17;;;1.70;;
16484;SDS011;8353;47.856;12.344;2023-02-26T09:06:32;2.37;;;1.40;;
16484;SDS011;8353;47.856;12.344;2023-02-26T09:09:04;1.40;;;1.30;;
16484;SDS011;8353;47.856;12.344;2023-02-26T09:11:35;2.17;;;1.80;;
16484;SDS011;8353;47.856;12.344;2023-02-26T09:14:06;2.87;;;2.37;;
16484;SDS011;8353;47.856;12.344;2023-02-26T09:16:36;4.53;;;3.30;;
16484;SDS011;8353;47.856;12.344;2023-02-26T09:19:07;2.77;;;2.07;;
16484;SDS011;8353;47.856;12.344;2023-02-26T09:21:37;2.70;;;2.50;;
16484;SDS011;8353;47.856;12.344;2023-02-26T09:24:09;1.93;;;1.50;;
16484;SDS011;8353;47.856;12.344;2023-02-26T09:26:40;2.40;;;1.77;;
16484;SDS011;8353;47.856;12.344;2023-02-26T09:29:10;2.20;;;1.47;;
16484;SDS011;8353;47.856;12.344;2023-02-26T09:31:42;2.47;;;1.63;;
16484;SDS011;8353;47.856;12.344;2023-02-26T09:34:13;2.23;;;1.77;;
16484;SDS011;8353;47.856;12.344;2023-02-26T09:36:43;2.77;;;2.50;;
16484;SDS011;8353;47.856;12.344;2023-02-26T09:39:15;2.07;;;1.70;;
16484;SDS011;8353;47.856;12.344;2023-02-26T09:41:46;1.73;;;1.60;;
16484;SDS011;8353;47.856;12.344;2023-02-26T09:44:19;2.20;;;1.90;;
16484;SDS011;8353;47.856;12.344;2023-02-26T09:47:00;1.47;;;1.37;;
16484;SDS011;8353;47.856;12.344;2023-02-26T09:49:36;3.20;;;2.73;;
16484;SDS011;8353;47.856;12.344;2023-02-26T09:52:17;1.70;;;1.60;;
16484;SDS011;8353;47.856;12.344;2023-02-26T09:54:55;2.20;;;2.00;;
16484;SDS011;8353;47.856;12.344;2023-02-26T09:57:29;2.73;;;1.97;;
16484;SDS011;8353;47.856;12.344;2023-02-26T10:00:02;1.63;;;1.53;;
16484;SDS011;8353;47.856;12.344;2023-02-26T10:02:37;1.43;;;1.33;;
16484;SDS011;8353;47.856;12.344;2023-02-26T10:05:17;1.40;;;1.30;;
16484;SDS011;8353;47.856;12.344;2023-02-26T10:07:54;3.33;;;2.30;;
16484;SDS011;8353;47.856;12.344;2023-02-26T10:10:32;3.03;;;2.70;;
16484;SDS011;8353;47.856;12.344;2023-02-26T10:13:10;3.50;;;1.70;;
16484;SDS011;8353;47.856;12.344;2023-02-26T10:15:52;1.67;;;1.40;;
16484;SDS011;8353;47.856;12.344;2023-02-26T10:18:31;1.77;;;1.40;;
16484;SDS011;8353;47.856;12.344;2023-02-26T10:21:08;1.43;;;1.20;;
16484;SDS011;8353;47.856;12.344;2023-02-26T10:23:44;2.93;;;2.57;;
16484;SDS011;8353;47.856;12.344;2023-02-26T10:26:21;2.40;;;2.20;;
16484;SDS011;8353;47.856;12.344;2023-02-26T10:28:55;4.10;;;2.63;;
16484;SDS011;8353;47.856;12.344;2023-02-26T10:31:33;2.53;;;1.70;;
16484;SDS011;8353;47.856;12.344;2023-02-26T10:34:15;3.63;;;3.33;;
16484;SDS011;8353;47.856;12.344;2023-02-26T10:36:51;3.73;;;2.57;;
16484;SDS011;8353;47.856;12.344;2023-02-26T10:39:28;3.33;;;2.70;;
16484;SDS011;8353;47.856;12.344;2023-02-26T10:42:04;2.00;;;1.80;;
16484;SDS011;8353;47.856;12.344;2023-02-26T10:44:43;2.17;;;1.93;;
16484;SDS011;8353;47.856;12.344;2023-02-26T10:47:21;2.33;;;2.13;;
16484;SDS011;8353;47.856;12.344;2023-02-26T10:50:00;2.20;;;2.00;;
16484;SDS011;8353;47.856;12.344;2023-02-26T10:52:33;3.97;;;3.57;;
16484;SDS011;8353;47.856;12.344;2023-02-26T10:55:19;2.93;;;2.73;;
16484;SDS011;8353;47.856;12.344;2023-02-26T10:58:02;3.27;;;2.97;;
16484;SDS011;8353;47.856;12.344;2023-02-26T11:00:34;2.40;;;2.20;;
16484;SDS011;8353;47.856;12.344;2023-02-26T11:03:05;2.40;;;2.10;;
16484;SDS011;8353;47.856;12.344;2023-02-26T11:05:39;2.00;;;1.90;;
16484;SDS011;8353;47.856;12.344;2023-02-26T11:08:12;2.80;;;2.30;;
16484;SDS011;8353;47.856;12.344;2023-02-26T11:10:47;3.43;;;3.13;;
16484;SDS011;8353;47.856;12.344;2023-02-26T11:13:23;2.80;;;2.60;;
16484;SDS011;8353;47.856;12.344;2023-02-26T11:15:57;2.63;;;2.37;;
16484;SDS011;8353;47.856;12.344;2023-02-26T11:18:31;3.07;;;2.17;;
16484;SDS011;8353;47.856;12.344;2023-02-26T11:21:12;2.80;;;2.60;;
16484;SDS011;8353;47.856;12.344;2023-02-26T11:23:47;2.63;;;2.43;;
16484;SDS011;8353;47.856;12.344;2023-02-26T11:26:19;2.80;;;2.53;;
16484;SDS011;8353;47.856;12.344;2023-02-26T11:28:57;3.93;;;3.60;;
16484;SDS011;8353;47.856;12.344;2023-02-26T11:31:29;3.90;;;2.77;;
16484;SDS011;8353;47.856;12.344;2023-02-26T11:34:01;2.67;;;2.47;;
16484;SDS011;8353;47.856;12.344;2023-02-26T11:36:32;2.47;;;2.27;;
16484;SDS011;8353;47.856;12.344;2023-02-26T11:39:06;4.47;;;3.73;;
16484;SDS011;8353;47.856;12.344;2023-02-26T11:41:38;4.10;;;3.70;;
16484;SDS011;8353;47.856;12.344;2023-02-26T11:44:12;5.50;;;4.27;;
16484;SDS011;8353;47.856;12.344;2023-02-26T11:46:47;2.77;;;2.50;;
16484;SDS011;8353;47.856;12.344;2023-02-26T11:49:20;4.07;;;3.47;;
16484;SDS011;8353;47.856;12.344;2023-02-26T11:52:14;2.57;;;2.37;;
16484;SDS011;8353;47.856;12.344;2023-02-26T11:54:49;2.40;;;2.20;;
16484;SDS011;8353;47.856;12.344;2023-02-26T11:57:23;3.30;;;2.93;;
16484;SDS011;8353;47.856;12.344;2023-02-26T11:59:59;4.13;;;2.10;;
16484;SDS011;8353;47.856;12.344;2023-02-26T12:02:45;3.57;;;3.27;;
16484;SDS011;8353;47.856;12.344;2023-02-26T12:05:16;2.30;;;2.10;;
16484;SDS011;8353;47.856;12.344;2023-02-26T12:07:47;4.93;;;3.60;;
16484;SDS011;8353;47.856;12.344;2023-02-26T12:10:20;1.90;;;1.80;;
16484;SDS011;8353;47.856;12.344;2023-02-26T12:13:00;3.80;;;3.40;;
16484;SDS011;8353;47.856;12.344;2023-02-26T12:15:45;4.07;;;3.03;;
16484;SDS011;8353;47.856;12.344;2023-02-26T12:18:29;2.23;;;2.03;;
16484;SDS011;8353;47.856;12.344;2023-02-26T12:21:15;2.20;;;2.00;;
16484;SDS011;8353;47.856;12.344;2023-02-26T12:24:04;2.73;;;2.50;;
16484;SDS011;8353;47.856;12.344;2023-02-26T12:26:48;3.73;;;3.40;;
16484;SDS011;8353;47.856;12.344;2023-02-26T12:29:31;2.77;;;2.07;;
16484;SDS011;8353;47.856;12.344;2023-02-26T12:32:17;1.93;;;1.77;;
16484;SDS011;8353;47.856;12.344;2023-02-26T12:38:07;2.17;;;1.97;;
16484;SDS011;8353;47.856;12.344;2023-02-26T12:41:02;2.70;;;2.20;;
16484;SDS011;8353;47.856;12.344;2023-02-26T12:44:12;2.37;;;2.17;;
16484;SDS011;8353;47.856;12.344;2023-02-26T12:46:57;1.90;;;1.70;;
16484;SDS011;8353;47.856;12.344;2023-02-26T12:49:45;3.23;;;2.30;;
16484;SDS011;8353;47.856;12.344;2023-02-26T12:52:32;2.67;;;1.50;;
16484;SDS011;8353;47.856;12.344;2023-02-26T12:55:24;3.20;;;1.87;;
16484;SDS011;8353;47.856;12.344;2023-02-26T12:58:19;1.43;;;1.33;;
16484;SDS011;8353;47.856;12.344;2023-02-26T13:04:28;1.50;;;1.40;;
16484;SDS011;8353;47.856;12.344;2023-02-26T13:07:33;1.87;;;1.70;;
16484;SDS011;8353;47.856;12.344;2023-02-26T13:10:19;1.93;;;1.80;;
16484;SDS011;8353;47.856;12.344;2023-02-26T13:13:00;2.00;;;1.80;;
16484;SDS011;8353;47.856;12.344;2023-02-26T13:15:53;1.20;;;1.10;;
16484;SDS011;8353;47.856;12.344;2023-02-26T13:18:33;1.93;;;1.73;;
16484;SDS011;8353;47.856;12.344;2023-02-26T13:21:11;1.43;;;1.33;;
16484;SDS011;8353;47.856;12.344;2023-02-26T13:23:49;2.23;;;2.03;;
16484;SDS011;8353;47.856;12.344;2023-02-26T13:26:22;2.10;;;1.90;;
16484;SDS011;8353;47.856;12.344;2023-02-26T13:28:57;2.13;;;1.50;;
16484;SDS011;8353;47.856;12.344;2023-02-26T13:31:32;1.07;;;0.97;;
16484;SDS011;8353;47.856;12.344;2023-02-26T13:34:11;1.90;;;0.90;;
16484;SDS011;8353;47.856;12.344;2023-02-26T13:36:46;1.63;;;0.90;;
16484;SDS011;8353;47.856;12.344;2023-02-26T13:39:28;1.03;;;0.93;;
16484;SDS011;8353;47.856;12.344;2023-02-26T13:42:14;0.97;;;0.70;;
16484;SDS011;8353;47.856;12.344;2023-02-26T13:44:55;0.90;;;0.77;;
16484;SDS011;8353;47.856;12.344;2023-02-26T13:47:48;1.50;;;0.97;;
16484;SDS011;8353;47.856;12.344;2023-02-26T13:50:27;1.10;;;1.00;;
16484;SDS011;8353;47.856;12.344;2023-02-26T13:53:03;2.60;;;1.10;;
16484;SDS011;8353;47.856;12.344;2023-02-26T13:56:04;1.00;;;0.90;;
16484;SDS011;8353;47.856;12.344;2023-02-26T13:58:37;1.07;;;0.97;;
16484;SDS011;8353;47.856;12.344;2023-02-26T14:01:09;2.80;;;2.23;;
16484;SDS011;8353;47.856;12.344;2023-02-26T14:03:46;1.10;;;0.90;;
16484;SDS011;8353;47.856;12.344;2023-02-26T14:06:34;1.07;;;0.70;;
16484;SDS011;8353;47.856;12.344;2023-02-26T14:09:29;0.90;;;0.90;;
16484;SDS011;8353;47.856;12.344;2023-02-26T14:12:21;1.13;;;1.03;;
16484;SDS011;8353;47.856;12.344;2023-02-26T14:17:59;1.87;;;1.53;;
16484;SDS011;8353;47.856;12.344;2023-02-26T14:20:33;1.73;;;1.43;;
16484;SDS011;8353;47.856;12.344;2023-02-26T14:23:11;1.60;;;1.50;;
16484;SDS011;8353;47.856;12.344;2023-02-26T14:26:02;1.50;;;1.30;;
16484;SDS011;8353;47.856;12.344;2023-02-26T14:31:26;1.80;;;1.03;;
16484;SDS011;8353;47.856;12.344;2023-02-26T14:34:20;0.80;;;0.80;;
16484;SDS011;8353;47.856;12.344;2023-02-26T14:36:54;1.40;;;1.10;;
16484;SDS011;8353;47.856;12.344;2023-02-26T14:39:28;1.17;;;1.00;;
16484;SDS011;8353;47.856;12.344;2023-02-26T14:42:01;1.63;;;1.53;;
16484;SDS011;8353;47.856;12.344;2023-02-26T14:44:37;1.20;;;1.10;;
16484;SDS011;8353;47.856;12.344;2023-02-26T14:47:11;2.20;;;1.07;;
16484;SDS011;8353;47.856;12.344;2023-02-26T14:49:42;1.20;;;1.10;;
16484;SDS011;8353;47.856;12.344;2023-02-26T14:55:24;1.07;;;0.93;;
16484;SDS011;8353;47.856;12.344;2023-02-26T14:58:06;1.20;;;1.10;;
16484;SDS011;8353;47.856;12.344;2023-02-26T15:00:48;2.10;;;1.00;;
16484;SDS011;8353;47.856;12.344;2023-02-26T15:03:28;1.43;;;1.20;;
16484;SDS011;8353;47.856;12.344;2023-02-26T15:06:15;0.70;;;0.70;;
16484;SDS011;8353;47.856;12.344;2023-02-26T15:08:59;1.50;;;1.20;;
16484;SDS011;8353;47.856;12.344;2023-02-26T15:11:48;1.90;;;1.30;;
16484;SDS011;8353;47.856;12.344;2023-02-26T15:14:49;1.20;;;1.10;;
16484;SDS011;8353;47.856;12.344;2023-02-26T15:17:32;0.90;;;0.90;;
16484;SDS011;8353;47.856;12.344;2023-02-26T15:20:17;1.13;;;1.03;;
16484;SDS011;8353;47.856;12.344;2023-02-26T15:22:57;1.10;;;0.93;;
16484;SDS011;8353;47.856;12.344;2023-02-26T15:25:43;1.30;;;1.20;;
16484;SDS011;8353;47.856;12.344;2023-02-26T15:28:17;1.03;;;0.90;;
16484;SDS011;8353;47.856;12.344;2023-02-26T15:30:52;1.30;;;1.20;;
16484;SDS011;8353;47.856;12.344;2023-02-26T15:33:25;1.10;;;1.00;;
16484;SDS011;8353;47.856;12.344;2023-02-26T15:35:57;1.67;;;1.07;;
16484;SDS011;8353;47.856;12.344;2023-02-26T15:38:38;4.50;;;1.77;;
16484;SDS011;8353;47.856;12.344;2023-02-26T15:41:10;1.83;;;1.50;;
16484;SDS011;8353;47.856;12.344;2023-02-26T15:43:43;2.03;;;0.90;;
16484;SDS011;8353;47.856;12.344;2023-02-26T15:46:16;2.20;;;1.10;;
16484;SDS011;8353;47.856;12.344;2023-02-26T15:48:51;3.03;;;2.70;;
16484;SDS011;8353;47.856;12.344;2023-02-26T15:51:25;1.80;;;1.23;;
16484;SDS011;8353;47.856;12.344;2023-02-26T15:53:56;2.17;;;1.80;;